Terminal Aerodrome Forecast
Issued by NWS

Home | Current Version | Previous Version | Text Only | Print | Product List | Glossary On
Versions: 1 2 3 4 5 6 7 8 9 10 11 12 13 14
000
FTUS46 KEKA 020538
TAFUKI
TAF
KUKI 020538Z 0206/0306 VRB03KT P6SM SCT250
     FM021300 VRB03KT 6SM BR FEW006 SCT100 SCT250
     FM021800 31009KT P6SM VCSH SCT050 SCT100 BKN250
     FM022200 28007KT P6SM FEW050 SCT100 SCT250
     FM030300 00000KT P6SM FEW100 SCT250=

USA.gov is the U.S. government's official web portal to all federal, state and local government web resources and services.